sensor_id;sensor_type;location;lat;lon;timestamp;P1;durP1;ratioP1;P2;durP2;ratioP2
8317;SDS011;4196;48.926;8.964;2024-02-14T00:02:45;13.07;;;6.43;;
8317;SDS011;4196;48.926;8.964;2024-02-14T00:05:35;12.20;;;5.90;;
8317;SDS011;4196;48.926;8.964;2024-02-14T00:08:22;10.17;;;5.47;;
8317;SDS011;4196;48.926;8.964;2024-02-14T00:11:09;11.77;;;6.07;;
8317;SDS011;4196;48.926;8.964;2024-02-14T00:13:55;11.20;;;5.17;;
8317;SDS011;4196;48.926;8.964;2024-02-14T00:16:42;8.47;;;6.07;;
8317;SDS011;4196;48.926;8.964;2024-02-14T00:19:29;10.33;;;6.23;;
8317;SDS011;4196;48.926;8.964;2024-02-14T00:22:16;13.13;;;6.40;;
8317;SDS011;4196;48.926;8.964;2024-02-14T00:25:02;11.50;;;6.87;;
8317;SDS011;4196;48.926;8.964;2024-02-14T00:27:49;14.57;;;6.43;;
8317;SDS011;4196;48.926;8.964;2024-02-14T00:30:36;11.33;;;6.07;;
8317;SDS011;4196;48.926;8.964;2024-02-14T00:33:22;9.43;;;5.77;;
8317;SDS011;4196;48.926;8.964;2024-02-14T00:36:09;9.80;;;5.50;;
8317;SDS011;4196;48.926;8.964;2024-02-14T00:38:55;10.63;;;6.17;;
8317;SDS011;4196;48.926;8.964;2024-02-14T00:41:42;9.07;;;5.33;;
8317;SDS011;4196;48.926;8.964;2024-02-14T00:44:29;14.53;;;5.17;;
8317;SDS011;4196;48.926;8.964;2024-02-14T00:47:15;10.23;;;4.80;;
8317;SDS011;4196;48.926;8.964;2024-02-14T00:50:02;6.20;;;4.67;;
8317;SDS011;4196;48.926;8.964;2024-02-14T00:52:49;6.77;;;4.40;;
8317;SDS011;4196;48.926;8.964;2024-02-14T00:55:35;10.03;;;4.80;;
8317;SDS011;4196;48.926;8.964;2024-02-14T00:58:22;7.33;;;4.13;;
8317;SDS011;4196;48.926;8.964;2024-02-14T01:01:09;6.60;;;5.00;;
8317;SDS011;4196;48.926;8.964;2024-02-14T01:03:55;10.00;;;4.50;;
8317;SDS011;4196;48.926;8.964;2024-02-14T01:06:42;7.20;;;4.70;;
8317;SDS011;4196;48.926;8.964;2024-02-14T01:09:29;6.90;;;4.27;;
8317;SDS011;4196;48.926;8.964;2024-02-14T01:12:15;8.47;;;4.83;;
8317;SDS011;4196;48.926;8.964;2024-02-14T01:15:03;9.97;;;4.80;;
8317;SDS011;4196;48.926;8.964;2024-02-14T01:17:51;7.80;;;4.73;;
8317;SDS011;4196;48.926;8.964;2024-02-14T01:20:37;7.93;;;5.33;;
8317;SDS011;4196;48.926;8.964;2024-02-14T01:23:24;8.30;;;5.03;;
8317;SDS011;4196;48.926;8.964;2024-02-14T01:26:11;8.10;;;5.23;;
8317;SDS011;4196;48.926;8.964;2024-02-14T01:28:57;10.17;;;5.10;;
8317;SDS011;4196;48.926;8.964;2024-02-14T01:31:47;8.10;;;4.97;;
8317;SDS011;4196;48.926;8.964;2024-02-14T01:34:33;15.57;;;5.50;;
8317;SDS011;4196;48.926;8.964;2024-02-14T01:37:20;9.27;;;5.13;;
8317;SDS011;4196;48.926;8.964;2024-02-14T01:40:07;7.10;;;4.70;;
8317;SDS011;4196;48.926;8.964;2024-02-14T01:42:53;10.53;;;5.93;;
8317;SDS011;4196;48.926;8.964;2024-02-14T01:45:41;8.43;;;4.10;;
8317;SDS011;4196;48.926;8.964;2024-02-14T01:48:27;6.77;;;5.07;;
8317;SDS011;4196;48.926;8.964;2024-02-14T01:51:14;5.80;;;4.43;;
8317;SDS011;4196;48.926;8.964;2024-02-14T01:54:04;8.33;;;4.53;;
8317;SDS011;4196;48.926;8.964;2024-02-14T01:56:52;6.57;;;4.37;;
8317;SDS011;4196;48.926;8.964;2024-02-14T01:59:40;7.13;;;4.50;;
8317;SDS011;4196;48.926;8.964;2024-02-14T02:02:27;8.53;;;4.70;;
8317;SDS011;4196;48.926;8.964;2024-02-14T02:05:14;6.40;;;4.23;;
8317;SDS011;4196;48.926;8.964;2024-02-14T02:08:02;8.23;;;4.60;;
8317;SDS011;4196;48.926;8.964;2024-02-14T02:10:48;8.63;;;5.13;;
8317;SDS011;4196;48.926;8.964;2024-02-14T02:13:35;6.63;;;4.53;;
8317;SDS011;4196;48.926;8.964;2024-02-14T02:16:22;11.23;;;4.93;;
8317;SDS011;4196;48.926;8.964;2024-02-14T02:19:09;6.57;;;4.83;;
8317;SDS011;4196;48.926;8.964;2024-02-14T02:21:56;8.83;;;5.30;;
8317;SDS011;4196;48.926;8.964;2024-02-14T02:24:43;8.43;;;4.73;;
8317;SDS011;4196;48.926;8.964;2024-02-14T02:27:31;7.30;;;5.33;;
8317;SDS011;4196;48.926;8.964;2024-02-14T02:30:18;5.97;;;3.90;;
8317;SDS011;4196;48.926;8.964;2024-02-14T02:33:05;10.23;;;4.20;;
8317;SDS011;4196;48.926;8.964;2024-02-14T02:35:53;9.33;;;5.03;;
8317;SDS011;4196;48.926;8.964;2024-02-14T02:38:40;8.10;;;5.10;;
8317;SDS011;4196;48.926;8.964;2024-02-14T02:41:27;9.00;;;5.47;;
8317;SDS011;4196;48.926;8.964;2024-02-14T02:44:13;8.50;;;5.73;;
8317;SDS011;4196;48.926;8.964;2024-02-14T02:47:00;11.93;;;5.23;;
8317;SDS011;4196;48.926;8.964;2024-02-14T02:49:46;12.57;;;5.47;;
8317;SDS011;4196;48.926;8.964;2024-02-14T02:52:36;10.10;;;5.53;;
8317;SDS011;4196;48.926;8.964;2024-02-14T02:55:23;9.37;;;5.93;;
8317;SDS011;4196;48.926;8.964;2024-02-14T02:58:10;12.90;;;6.10;;
8317;SDS011;4196;48.926;8.964;2024-02-14T03:00:56;12.43;;;6.40;;
8317;SDS011;4196;48.926;8.964;2024-02-14T03:03:44;9.70;;;5.33;;
8317;SDS011;4196;48.926;8.964;2024-02-14T03:06:30;12.63;;;6.20;;
8317;SDS011;4196;48.926;8.964;2024-02-14T03:09:17;11.97;;;7.17;;
8317;SDS011;4196;48.926;8.964;2024-02-14T03:12:04;9.23;;;5.93;;
8317;SDS011;4196;48.926;8.964;2024-02-14T03:14:51;11.50;;;6.57;;
8317;SDS011;4196;48.926;8.964;2024-02-14T03:17:39;11.27;;;6.27;;
8317;SDS011;4196;48.926;8.964;2024-02-14T03:20:25;9.83;;;5.33;;
8317;SDS011;4196;48.926;8.964;2024-02-14T03:23:12;8.40;;;5.40;;
8317;SDS011;4196;48.926;8.964;2024-02-14T03:25:58;8.27;;;5.27;;
8317;SDS011;4196;48.926;8.964;2024-02-14T03:28:45;6.43;;;4.90;;
8317;SDS011;4196;48.926;8.964;2024-02-14T03:31:32;6.97;;;4.67;;
8317;SDS011;4196;48.926;8.964;2024-02-14T03:34:18;7.83;;;4.77;;
8317;SDS011;4196;48.926;8.964;2024-02-14T03:37:05;9.00;;;4.60;;
8317;SDS011;4196;48.926;8.964;2024-02-14T03:39:53;13.50;;;6.80;;
8317;SDS011;4196;48.926;8.964;2024-02-14T03:42:40;9.97;;;5.10;;
8317;SDS011;4196;48.926;8.964;2024-02-14T03:45:26;4.53;;;3.43;;
8317;SDS011;4196;48.926;8.964;2024-02-14T03:48:15;5.77;;;3.50;;
8317;SDS011;4196;48.926;8.964;2024-02-14T03:51:02;9.50;;;4.60;;
8317;SDS011;4196;48.926;8.964;2024-02-14T03:53:49;3.53;;;2.90;;
8317;SDS011;4196;48.926;8.964;2024-02-14T03:56:36;4.87;;;3.07;;
8317;SDS011;4196;48.926;8.964;2024-02-14T03:59:23;7.63;;;4.03;;
8317;SDS011;4196;48.926;8.964;2024-02-14T04:02:11;5.47;;;3.27;;
8317;SDS011;4196;48.926;8.964;2024-02-14T04:04:57;5.57;;;3.20;;
8317;SDS011;4196;48.926;8.964;2024-02-14T04:07:44;5.50;;;4.30;;
8317;SDS011;4196;48.926;8.964;2024-02-14T04:10:38;3.80;;;3.00;;
8317;SDS011;4196;48.926;8.964;2024-02-14T04:13:25;7.83;;;4.30;;
8317;SDS011;4196;48.926;8.964;2024-02-14T04:16:11;5.50;;;3.57;;
8317;SDS011;4196;48.926;8.964;2024-02-14T04:18:58;4.33;;;2.60;;
8317;SDS011;4196;48.926;8.964;2024-02-14T04:21:44;2.80;;;2.27;;
8317;SDS011;4196;48.926;8.964;2024-02-14T04:24:33;4.57;;;2.70;;
8317;SDS011;4196;48.926;8.964;2024-02-14T04:27:20;4.23;;;2.97;;
8317;SDS011;4196;48.926;8.964;2024-02-14T04:30:06;5.43;;;2.73;;
8317;SDS011;4196;48.926;8.964;2024-02-14T04:32:53;4.23;;;2.70;;
8317;SDS011;4196;48.926;8.964;2024-02-14T04:35:40;3.97;;;2.60;;
8317;SDS011;4196;48.926;8.964;2024-02-14T04:38:26;6.07;;;2.97;;
8317;SDS011;4196;48.926;8.964;2024-02-14T04:41:15;4.37;;;2.67;;
8317;SDS011;4196;48.926;8.964;2024-02-14T04:44:01;3.47;;;2.93;;
8317;SDS011;4196;48.926;8.964;2024-02-14T04:46:48;3.87;;;2.43;;
8317;SDS011;4196;48.926;8.964;2024-02-14T04:49:34;3.97;;;2.87;;
8317;SDS011;4196;48.926;8.964;2024-02-14T04:52:21;3.40;;;2.90;;
8317;SDS011;4196;48.926;8.964;2024-02-14T04:55:07;4.87;;;3.03;;
8317;SDS011;4196;48.926;8.964;2024-02-14T04:57:54;3.83;;;2.87;;
8317;SDS011;4196;48.926;8.964;2024-02-14T05:00:41;3.23;;;2.77;;
8317;SDS011;4196;48.926;8.964;2024-02-14T05:03:28;4.30;;;2.93;;
8317;SDS011;4196;48.926;8.964;2024-02-14T05:06:14;3.30;;;2.53;;
8317;SDS011;4196;48.926;8.964;2024-02-14T05:09:01;4.20;;;2.50;;
8317;SDS011;4196;48.926;8.964;2024-02-14T05:11:47;5.37;;;2.60;;
8317;SDS011;4196;48.926;8.964;2024-02-14T05:14:37;3.70;;;2.20;;
8317;SDS011;4196;48.926;8.964;2024-02-14T05:17:24;2.60;;;2.40;;
8317;SDS011;4196;48.926;8.964;2024-02-14T05:20:10;3.20;;;2.33;;
8317;SDS011;4196;48.926;8.964;2024-02-14T05:22:57;5.40;;;2.73;;
8317;SDS011;4196;48.926;8.964;2024-02-14T05:25:44;4.07;;;2.33;;
8317;SDS011;4196;48.926;8.964;2024-02-14T05:28:30;5.60;;;2.03;;
8317;SDS011;4196;48.926;8.964;2024-02-14T05:31:17;4.73;;;2.40;;
8317;SDS011;4196;48.926;8.964;2024-02-14T05:34:03;4.57;;;3.10;;
8317;SDS011;4196;48.926;8.964;2024-02-14T05:36:50;3.73;;;2.00;;
8317;SDS011;4196;48.926;8.964;2024-02-14T05:39:38;4.07;;;2.27;;
8317;SDS011;4196;48.926;8.964;2024-02-14T05:42:25;2.97;;;2.40;;
8317;SDS011;4196;48.926;8.964;2024-02-14T05:45:12;3.60;;;2.30;;
8317;SDS011;4196;48.926;8.964;2024-02-14T05:47:58;3.50;;;2.40;;
8317;SDS011;4196;48.926;8.964;2024-02-14T05:50:45;4.03;;;2.30;;
8317;SDS011;4196;48.926;8.964;2024-02-14T05:53:32;3.13;;;2.00;;
8317;SDS011;4196;48.926;8.964;2024-02-14T05:56:19;3.60;;;1.90;;
8317;SDS011;4196;48.926;8.964;2024-02-14T05:59:06;2.87;;;2.00;;
8317;SDS011;4196;48.926;8.964;2024-02-14T06:01:54;3.80;;;2.30;;
8317;SDS011;4196;48.926;8.964;2024-02-14T06:04:40;3.83;;;2.47;;
8317;SDS011;4196;48.926;8.964;2024-02-14T06:07:28;4.80;;;3.00;;
8317;SDS011;4196;48.926;8.964;2024-02-14T06:10:15;5.53;;;3.03;;
8317;SDS011;4196;48.926;8.964;2024-02-14T06:13:02;2.73;;;2.20;;
8317;SDS011;4196;48.926;8.964;2024-02-14T06:15:48;4.07;;;2.10;;
8317;SDS011;4196;48.926;8.964;2024-02-14T06:18:34;2.70;;;2.20;;
8317;SDS011;4196;48.926;8.964;2024-02-14T06:21:22;6.27;;;3.07;;
8317;SDS011;4196;48.926;8.964;2024-02-14T06:24:08;3.13;;;2.17;;
8317;SDS011;4196;48.926;8.964;2024-02-14T06:26:57;4.13;;;2.80;;
8317;SDS011;4196;48.926;8.964;2024-02-14T06:29:44;3.90;;;2.27;;
8317;SDS011;4196;48.926;8.964;2024-02-14T06:32:31;4.90;;;2.10;;
8317;SDS011;4196;48.926;8.964;2024-02-14T06:35:18;2.97;;;2.00;;
8317;SDS011;4196;48.926;8.964;2024-02-14T06:38:07;5.83;;;2.50;;
8317;SDS011;4196;48.926;8.964;2024-02-14T06:40:53;7.03;;;2.37;;
8317;SDS011;4196;48.926;8.964;2024-02-14T06:43:40;3.30;;;2.03;;
8317;SDS011;4196;48.926;8.964;2024-02-14T06:46:26;2.53;;;1.73;;
8317;SDS011;4196;48.926;8.964;2024-02-14T06:49:12;4.00;;;1.83;;
8317;SDS011;4196;48.926;8.964;2024-02-14T06:51:59;3.73;;;1.90;;
8317;SDS011;4196;48.926;8.964;2024-02-14T06:54:46;3.73;;;2.07;;
8317;SDS011;4196;48.926;8.964;2024-02-14T06:57:34;3.20;;;2.20;;
8317;SDS011;4196;48.926;8.964;2024-02-14T07:00:20;3.00;;;2.20;;
8317;SDS011;4196;48.926;8.964;2024-02-14T07:03:07;4.27;;;2.00;;
8317;SDS011;4196;48.926;8.964;2024-02-14T07:05:53;3.93;;;2.00;;
8317;SDS011;4196;48.926;8.964;2024-02-14T07:08:41;1.93;;;1.67;;
8317;SDS011;4196;48.926;8.964;2024-02-14T07:11:27;6.37;;;2.43;;
8317;SDS011;4196;48.926;8.964;2024-02-14T07:14:14;4.43;;;2.13;;
8317;SDS011;4196;48.926;8.964;2024-02-14T07:17:00;3.47;;;2.23;;
8317;SDS011;4196;48.926;8.964;2024-02-14T07:19:46;2.47;;;1.70;;
8317;SDS011;4196;48.926;8.964;2024-02-14T07:22:36;5.57;;;2.23;;
8317;SDS011;4196;48.926;8.964;2024-02-14T07:25:22;2.63;;;1.70;;
8317;SDS011;4196;48.926;8.964;2024-02-14T07:28:08;2.00;;;1.80;;
8317;SDS011;4196;48.926;8.964;2024-02-14T07:30:55;4.20;;;1.90;;
8317;SDS011;4196;48.926;8.964;2024-02-14T07:33:41;2.10;;;1.90;;
8317;SDS011;4196;48.926;8.964;2024-02-14T07:36:29;3.93;;;1.80;;
8317;SDS011;4196;48.926;8.964;2024-02-14T07:39:16;3.80;;;2.30;;
8317;SDS011;4196;48.926;8.964;2024-02-14T07:42:03;4.17;;;2.27;;
8317;SDS011;4196;48.926;8.964;2024-02-14T07:44:50;4.40;;;2.63;;
8317;SDS011;4196;48.926;8.964;2024-02-14T07:47:36;6.57;;;3.70;;
8317;SDS011;4196;48.926;8.964;2024-02-14T07:50:23;7.73;;;3.13;;
8317;SDS011;4196;48.926;8.964;2024-02-14T07:53:10;6.77;;;3.03;;
8317;SDS011;4196;48.926;8.964;2024-02-14T07:55:56;8.47;;;3.50;;
8317;SDS011;4196;48.926;8.964;2024-02-14T07:58:42;8.37;;;3.70;;
8317;SDS011;4196;48.926;8.964;2024-02-14T08:01:29;6.60;;;3.43;;
8317;SDS011;4196;48.926;8.964;2024-02-14T08:04:16;7.47;;;3.70;;
8317;SDS011;4196;48.926;8.964;2024-02-14T08:07:03;10.73;;;3.50;;
8317;SDS011;4196;48.926;8.964;2024-02-14T08:09:50;12.60;;;3.20;;
8317;SDS011;4196;48.926;8.964;2024-02-14T08:12:36;20.30;;;4.70;;
8317;SDS011;4196;48.926;8.964;2024-02-14T08:15:23;11.77;;;4.03;;
8317;SDS011;4196;48.926;8.964;2024-02-14T08:18:09;7.17;;;3.00;;
8317;SDS011;4196;48.926;8.964;2024-02-14T08:20:56;6.73;;;3.10;;
8317;SDS011;4196;48.926;8.964;2024-02-14T08:23:43;5.20;;;3.20;;
8317;SDS011;4196;48.926;8.964;2024-02-14T08:26:58;17.50;;;6.20;;
8317;SDS011;4196;48.926;8.964;2024-02-14T08:29:44;7.27;;;4.77;;
8317;SDS011;4196;48.926;8.964;2024-02-14T08:32:33;8.87;;;3.73;;
8317;SDS011;4196;48.926;8.964;2024-02-14T08:35:20;8.23;;;4.33;;
8317;SDS011;4196;48.926;8.964;2024-02-14T08:38:08;10.40;;;4.37;;
8317;SDS011;4196;48.926;8.964;2024-02-14T08:40:54;8.63;;;3.93;;
8317;SDS011;4196;48.926;8.964;2024-02-14T08:43:41;9.80;;;3.93;;
8317;SDS011;4196;48.926;8.964;2024-02-14T08:46:32;7.30;;;3.93;;
8317;SDS011;4196;48.926;8.964;2024-02-14T08:49:19;9.07;;;3.80;;
8317;SDS011;4196;48.926;8.964;2024-02-14T08:52:06;6.30;;;3.00;;
8317;SDS011;4196;48.926;8.964;2024-02-14T08:54:53;7.60;;;3.80;;
8317;SDS011;4196;48.926;8.964;2024-02-14T08:57:40;7.30;;;3.20;;
8317;SDS011;4196;48.926;8.964;2024-02-14T09:00:27;9.57;;;3.10;;
8317;SDS011;4196;48.926;8.964;2024-02-14T09:03:13;5.30;;;2.97;;
8317;SDS011;4196;48.926;8.964;2024-02-14T09:06:00;7.60;;;2.77;;
8317;SDS011;4196;48.926;8.964;2024-02-14T09:08:46;6.20;;;3.00;;
8317;SDS011;4196;48.926;8.964;2024-02-14T09:11:34;5.37;;;3.20;;
8317;SDS011;4196;48.926;8.964;2024-02-14T09:14:20;11.33;;;7.73;;
8317;SDS011;4196;48.926;8.964;2024-02-14T09:17:07;4.87;;;2.53;;
8317;SDS011;4196;48.926;8.964;2024-02-14T09:19:53;4.17;;;2.40;;
8317;SDS011;4196;48.926;8.964;2024-02-14T09:22:40;7.53;;;2.50;;
8317;SDS011;4196;48.926;8.964;2024-02-14T09:25:30;4.87;;;3.13;;
8317;SDS011;4196;48.926;8.964;2024-02-14T09:28:16;6.73;;;2.67;;
8317;SDS011;4196;48.926;8.964;2024-02-14T09:31:03;9.13;;;3.00;;
8317;SDS011;4196;48.926;8.964;2024-02-14T09:33:50;5.67;;;2.90;;
8317;SDS011;4196;48.926;8.964;2024-02-14T09:36:37;5.70;;;2.87;;
8317;SDS011;4196;48.926;8.964;2024-02-14T09:39:25;6.07;;;3.00;;
8317;SDS011;4196;48.926;8.964;2024-02-14T09:42:13;7.07;;;2.90;;
8317;SDS011;4196;48.926;8.964;2024-02-14T09:45:02;5.30;;;2.40;;
8317;SDS011;4196;48.926;8.964;2024-02-14T09:47:49;6.73;;;2.70;;
8317;SDS011;4196;48.926;8.964;2024-02-14T09:50:35;3.83;;;2.30;;
8317;SDS011;4196;48.926;8.964;2024-02-14T09:53:23;5.13;;;2.60;;
8317;SDS011;4196;48.926;8.964;2024-02-14T09:56:10;6.77;;;2.50;;
8317;SDS011;4196;48.926;8.964;2024-02-14T09:59:02;6.63;;;2.40;;
8317;SDS011;4196;48.926;8.964;2024-02-14T10:01:49;5.37;;;2.33;;
8317;SDS011;4196;48.926;8.964;2024-02-14T10:04:37;4.30;;;2.10;;
8317;SDS011;4196;48.926;8.964;2024-02-14T10:07:25;5.80;;;2.00;;
8317;SDS011;4196;48.926;8.964;2024-02-14T10:10:12;2.23;;;2.00;;
8317;SDS011;4196;48.926;8.964;2024-02-14T10:12:59;15.63;;;3.80;;
8317;SDS011;4196;48.926;8.964;2024-02-14T10:15:47;5.43;;;2.50;;
8317;SDS011;4196;48.926;8.964;2024-02-14T10:18:34;9.60;;;2.40;;
8317;SDS011;4196;48.926;8.964;2024-02-14T10:21:21;5.53;;;2.93;;
8317;SDS011;4196;48.926;8.964;2024-02-14T10:24:08;9.30;;;2.63;;
8317;SDS011;4196;48.926;8.964;2024-02-14T10:27:00;9.30;;;2.20;;
8317;SDS011;4196;48.926;8.964;2024-02-14T10:29:49;4.63;;;1.80;;
8317;SDS011;4196;48.926;8.964;2024-02-14T10:32:39;3.37;;;1.70;;
8317;SDS011;4196;48.926;8.964;2024-02-14T10:35:35;2.60;;;1.47;;
8317;SDS011;4196;48.926;8.964;2024-02-14T10:38:23;2.93;;;1.50;;
8317;SDS011;4196;48.926;8.964;2024-02-14T10:41:10;3.03;;;1.70;;
8317;SDS011;4196;48.926;8.964;2024-02-14T10:43:58;3.83;;;1.70;;
8317;SDS011;4196;48.926;8.964;2024-02-14T10:46:46;1.97;;;1.70;;
8317;SDS011;4196;48.926;8.964;2024-02-14T10:49:38;6.37;;;2.00;;
8317;SDS011;4196;48.926;8.964;2024-02-14T10:52:36;2.03;;;1.60;;
8317;SDS011;4196;48.926;8.964;2024-02-14T10:55:24;5.83;;;2.03;;
8317;SDS011;4196;48.926;8.964;2024-02-14T10:58:16;3.73;;;2.00;;
8317;SDS011;4196;48.926;8.964;2024-02-14T11:01:02;4.03;;;1.93;;
8317;SDS011;4196;48.926;8.964;2024-02-14T11:03:49;4.53;;;2.03;;
8317;SDS011;4196;48.926;8.964;2024-02-14T11:06:51;5.17;;;2.10;;
8317;SDS011;4196;48.926;8.964;2024-02-14T11:09:43;3.80;;;1.57;;
8317;SDS011;4196;48.926;8.964;2024-02-14T11:12:34;3.20;;;2.03;;
8317;SDS011;4196;48.926;8.964;2024-02-14T11:15:23;5.37;;;2.60;;
8317;SDS011;4196;48.926;8.964;2024-02-14T11:18:11;3.93;;;2.23;;
8317;SDS011;4196;48.926;8.964;2024-02-14T11:20:58;3.53;;;1.90;;
8317;SDS011;4196;48.926;8.964;2024-02-14T11:23:54;5.03;;;2.33;;
8317;SDS011;4196;48.926;8.964;2024-02-14T11:26:47;6.87;;;3.40;;
8317;SDS011;4196;48.926;8.964;2024-02-14T11:29:40;9.50;;;3.50;;
8317;SDS011;4196;48.926;8.964;2024-02-14T11:32:37;11.27;;;2.77;;
8317;SDS011;4196;48.926;8.964;2024-02-14T11:35:28;7.50;;;3.13;;
8317;SDS011;4196;48.926;8.964;2024-02-14T11:38:15;3.90;;;2.40;;
8317;SDS011;4196;48.926;8.964;2024-02-14T11:41:02;3.57;;;2.27;;
8317;SDS011;4196;48.926;8.964;2024-02-14T11:43:53;6.13;;;2.87;;
8317;SDS011;4196;48.926;8.964;2024-02-14T11:46:39;2.70;;;2.30;;
8317;SDS011;4196;48.926;8.964;2024-02-14T11:49:26;3.23;;;1.80;;
8317;SDS011;4196;48.926;8.964;2024-02-14T11:52:13;2.27;;;1.70;;
8317;SDS011;4196;48.926;8.964;2024-02-14T11:55:00;2.13;;;1.93;;
8317;SDS011;4196;48.926;8.964;2024-02-14T11:57:47;1.63;;;1.53;;
8317;SDS011;4196;48.926;8.964;2024-02-14T12:00:40;3.37;;;2.50;;
8317;SDS011;4196;48.926;8.964;2024-02-14T12:03:28;1.80;;;1.67;;
8317;SDS011;4196;48.926;8.964;2024-02-14T12:06:15;1.60;;;1.50;;
8317;SDS011;4196;48.926;8.964;2024-02-14T12:09:03;2.50;;;1.50;;
8317;SDS011;4196;48.926;8.964;2024-02-14T12:11:52;2.40;;;1.60;;
8317;SDS011;4196;48.926;8.964;2024-02-14T12:14:38;1.43;;;1.10;;
8317;SDS011;4196;48.926;8.964;2024-02-14T12:17:25;1.20;;;1.10;;
8317;SDS011;4196;48.926;8.964;2024-02-14T12:20:13;0.60;;;0.60;;
8317;SDS011;4196;48.926;8.964;2024-02-14T12:23:00;0.80;;;0.80;;
8317;SDS011;4196;48.926;8.964;2024-02-14T12:25:46;0.90;;;0.90;;
8317;SDS011;4196;48.926;8.964;2024-02-14T12:28:33;5.03;;;1.23;;
8317;SDS011;4196;48.926;8.964;2024-02-14T12:31:24;3.00;;;1.00;;
8317;SDS011;4196;48.926;8.964;2024-02-14T12:34:11;2.17;;;0.93;;
8317;SDS011;4196;48.926;8.964;2024-02-14T12:36:58;1.10;;;0.90;;
8317;SDS011;4196;48.926;8.964;2024-02-14T12:39:45;0.67;;;0.50;;
8317;SDS011;4196;48.926;8.964;2024-02-14T12:42:34;0.63;;;0.47;;
8317;SDS011;4196;48.926;8.964;2024-02-14T12:45:21;0.60;;;0.57;;
8317;SDS011;4196;48.926;8.964;2024-02-14T12:48:10;0.53;;;0.40;;
8317;SDS011;4196;48.926;8.964;2024-02-14T12:51:01;0.83;;;0.60;;
8317;SDS011;4196;48.926;8.964;2024-02-14T12:53:47;1.20;;;0.57;;
8317;SDS011;4196;48.926;8.964;2024-02-14T12:56:34;1.73;;;0.73;;
8317;SDS011;4196;48.926;8.964;2024-02-14T12:59:21;1.97;;;0.60;;
8317;SDS011;4196;48.926;8.964;2024-02-14T13:02:07;0.60;;;0.60;;
8317;SDS011;4196;48.926;8.964;2024-02-14T13:04:53;0.33;;;0.33;;
8317;SDS011;4196;48.926;8.964;2024-02-14T13:07:40;0.53;;;0.50;;
8317;SDS011;4196;48.926;8.964;2024-02-14T13:10:28;0.60;;;0.60;;
8317;SDS011;4196;48.926;8.964;2024-02-14T13:13:31;1.13;;;1.00;;
8317;SDS011;4196;48.926;8.964;2024-02-14T13:16:17;0.40;;;0.40;;
8317;SDS011;4196;48.926;8.964;2024-02-14T13:19:04;0.90;;;0.90;;
8317;SDS011;4196;48.926;8.964;2024-02-14T13:21:51;0.70;;;0.40;;
8317;SDS011;4196;48.926;8.964;2024-02-14T13:24:37;0.40;;;0.40;;
8317;SDS011;4196;48.926;8.964;2024-02-14T13:27:24;0.40;;;0.40;;
8317;SDS011;4196;48.926;8.964;2024-02-14T13:30:11;0.33;;;0.30;;
8317;SDS011;4196;48.926;8.964;2024-02-14T13:32:58;1.27;;;1.20;;
8317;SDS011;4196;48.926;8.964;2024-02-14T13:35:45;0.60;;;0.60;;
8317;SDS011;4196;48.926;8.964;2024-02-14T13:38:31;0.63;;;0.63;;
8317;SDS011;4196;48.926;8.964;2024-02-14T13:42:24;7.83;;;5.30;;
8317;SDS011;4196;48.926;8.964;2024-02-14T13:45:21;2.37;;;2.13;;
8317;SDS011;4196;48.926;8.964;2024-02-14T13:48:15;0.33;;;0.33;;
8317;SDS011;4196;48.926;8.964;2024-02-14T13:51:03;6.30;;;4.00;;
8317;SDS011;4196;48.926;8.964;2024-02-14T13:53:55;10.73;;;6.40;;
8317;SDS011;4196;48.926;8.964;2024-02-14T13:56:50;5.23;;;3.77;;
8317;SDS011;4196;48.926;8.964;2024-02-14T13:59:49;1.70;;;1.43;;
8317;SDS011;4196;48.926;8.964;2024-02-14T14:02:45;3.70;;;2.50;;
8317;SDS011;4196;48.926;8.964;2024-02-14T14:05:34;25.07;;;11.60;;
8317;SDS011;4196;48.926;8.964;2024-02-14T14:08:21;1.53;;;1.30;;
8317;SDS011;4196;48.926;8.964;2024-02-14T14:11:23;6.90;;;4.70;;
8317;SDS011;4196;48.926;8.964;2024-02-14T14:14:12;6.10;;;4.10;;
8317;SDS011;4196;48.926;8.964;2024-02-14T14:17:06;8.13;;;5.70;;
8317;SDS011;4196;48.926;8.964;2024-02-14T14:20:02;7.07;;;4.27;;
8317;SDS011;4196;48.926;8.964;2024-02-14T14:23:11;7.07;;;3.40;;
8317;SDS011;4196;48.926;8.964;2024-02-14T14:26:13;7.20;;;3.57;;
8317;SDS011;4196;48.926;8.964;2024-02-14T14:29:08;14.63;;;8.80;;
8317;SDS011;4196;48.926;8.964;2024-02-14T14:32:27;2.93;;;1.93;;
8317;SDS011;4196;48.926;8.964;2024-02-14T14:35:14;4.57;;;1.50;;
8317;SDS011;4196;48.926;8.964;2024-02-14T14:38:01;9.77;;;2.27;;
8317;SDS011;4196;48.926;8.964;2024-02-14T14:40:49;7.37;;;1.70;;
8317;SDS011;4196;48.926;8.964;2024-02-14T14:43:36;6.37;;;2.90;;
8317;SDS011;4196;48.926;8.964;2024-02-14T14:46:22;3.33;;;2.43;;
8317;SDS011;4196;48.926;8.964;2024-02-14T14:49:09;1.30;;;1.13;;
8317;SDS011;4196;48.926;8.964;2024-02-14T14:51:58;3.30;;;1.50;;
8317;SDS011;4196;48.926;8.964;2024-02-14T14:55:10;23.60;;;11.87;;
8317;SDS011;4196;48.926;8.964;2024-02-14T14:58:11;12.13;;;3.73;;
8317;SDS011;4196;48.926;8.964;2024-02-14T15:01:04;4.03;;;1.97;;
8317;SDS011;4196;48.926;8.964;2024-02-14T15:04:05;2.80;;;1.73;;
8317;SDS011;4196;48.926;8.964;2024-02-14T15:07:00;0.77;;;0.77;;
8317;SDS011;4196;48.926;8.964;2024-02-14T15:09:53;1.80;;;1.43;;
8317;SDS011;4196;48.926;8.964;2024-02-14T15:13:04;1.13;;;1.07;;
8317;SDS011;4196;48.926;8.964;2024-02-14T15:15:59;1.47;;;0.83;;
8317;SDS011;4196;48.926;8.964;2024-02-14T15:18:54;4.93;;;0.90;;
8317;SDS011;4196;48.926;8.964;2024-02-14T15:21:49;1.50;;;1.10;;
8317;SDS011;4196;48.926;8.964;2024-02-14T15:24:36;6.80;;;2.40;;
8317;SDS011;4196;48.926;8.964;2024-02-14T15:27:27;5.80;;;2.57;;
8317;SDS011;4196;48.926;8.964;2024-02-14T15:30:23;6.17;;;2.40;;
8317;SDS011;4196;48.926;8.964;2024-02-14T15:33:28;2.63;;;1.97;;
8317;SDS011;4196;48.926;8.964;2024-02-14T15:36:15;3.87;;;1.90;;
8317;SDS011;4196;48.926;8.964;2024-02-14T15:39:06;2.97;;;2.13;;
8317;SDS011;4196;48.926;8.964;2024-02-14T15:41:57;5.40;;;3.13;;
8317;SDS011;4196;48.926;8.964;2024-02-14T15:44:43;4.00;;;2.10;;
8317;SDS011;4196;48.926;8.964;2024-02-14T15:47:30;4.63;;;1.97;;
8317;SDS011;4196;48.926;8.964;2024-02-14T15:50:19;3.03;;;1.60;;
8317;SDS011;4196;48.926;8.964;2024-02-14T15:53:06;3.40;;;1.83;;
8317;SDS011;4196;48.926;8.964;2024-02-14T15:55:53;6.47;;;2.93;;
8317;SDS011;4196;48.926;8.964;2024-02-14T15:58:39;5.43;;;2.80;;
8317;SDS011;4196;48.926;8.964;2024-02-14T16:01:26;2.90;;;2.07;;
8317;SDS011;4196;48.926;8.964;2024-02-14T16:04:12;2.93;;;2.20;;
8317;SDS011;4196;48.926;8.964;2024-02-14T16:07:08;2.10;;;1.57;;
8317;SDS011;4196;48.926;8.964;2024-02-14T16:10:00;1.67;;;1.30;;
8317;SDS011;4196;48.926;8.964;2024-02-14T16:12:51;3.00;;;1.27;;
8317;SDS011;4196;48.926;8.964;2024-02-14T16:15:54;5.17;;;3.00;;
8317;SDS011;4196;48.926;8.964;2024-02-14T16:18:41;4.37;;;2.77;;
8317;SDS011;4196;48.926;8.964;2024-02-14T16:21:40;4.03;;;2.20;;
8317;SDS011;4196;48.926;8.964;2024-02-14T16:24:55;4.47;;;2.70;;
8317;SDS011;4196;48.926;8.964;2024-02-14T16:27:51;2.87;;;1.77;;
8317;SDS011;4196;48.926;8.964;2024-02-14T16:30:40;2.00;;;1.33;;
8317;SDS011;4196;48.926;8.964;2024-02-14T16:33:43;2.90;;;2.03;;
8317;SDS011;4196;48.926;8.964;2024-02-14T16:36:43;3.03;;;1.93;;
8317;SDS011;4196;48.926;8.964;2024-02-14T16:39:32;1.90;;;1.50;;
8317;SDS011;4196;48.926;8.964;2024-02-14T16:42:30;1.53;;;1.43;;
8317;SDS011;4196;48.926;8.964;2024-02-14T16:45:21;1.67;;;1.57;;
8317;SDS011;4196;48.926;8.964;2024-02-14T16:48:15;2.23;;;1.70;;
8317;SDS011;4196;48.926;8.964;2024-02-14T16:51:03;2.93;;;1.87;;
8317;SDS011;4196;48.926;8.964;2024-02-14T16:53:49;2.67;;;1.60;;
8317;SDS011;4196;48.926;8.964;2024-02-14T16:56:36;2.43;;;1.60;;
8317;SDS011;4196;48.926;8.964;2024-02-14T16:59:23;3.70;;;1.80;;
8317;SDS011;4196;48.926;8.964;2024-02-14T17:02:10;1.93;;;1.57;;
8317;SDS011;4196;48.926;8.964;2024-02-14T17:04:59;3.70;;;2.00;;
8317;SDS011;4196;48.926;8.964;2024-02-14T17:07:46;2.33;;;1.60;;
8317;SDS011;4196;48.926;8.964;2024-02-14T17:10:35;2.87;;;1.90;;
8317;SDS011;4196;48.926;8.964;2024-02-14T17:13:22;4.27;;;3.03;;
8317;SDS011;4196;48.926;8.964;2024-02-14T17:16:14;4.20;;;2.37;;
8317;SDS011;4196;48.926;8.964;2024-02-14T17:19:04;4.20;;;2.93;;
8317;SDS011;4196;48.926;8.964;2024-02-14T17:22:01;5.07;;;2.53;;
8317;SDS011;4196;48.926;8.964;2024-02-14T17:25:02;4.60;;;2.57;;
8317;SDS011;4196;48.926;8.964;2024-02-14T17:27:49;3.63;;;2.77;;